sensor_id;sensor_type;location;lat;lon;timestamp;temperature;humidity
12684;DHT22;6406;59.312;18.058;2022-08-01T00:01:25;16.70;1.00
12684;DHT22;6406;59.312;18.058;2022-08-01T00:03:52;16.60;1.00
12684;DHT22;6406;59.312;18.058;2022-08-01T00:06:19;16.60;1.00
12684;DHT22;6406;59.312;18.058;2022-08-01T00:08:46;16.60;1.00
12684;DHT22;6406;59.312;18.058;2022-08-01T00:11:15;16.60;1.00
12684;DHT22;6406;59.312;18.058;2022-08-01T00:13:42;16.60;1.00
12684;DHT22;6406;59.312;18.058;2022-08-01T00:16:09;16.50;1.00
12684;DHT22;6406;59.312;18.058;2022-08-01T00:18:36;16.50;1.00
12684;DHT22;6406;59.312;18.058;2022-08-01T00:21:03;16.50;1.00
12684;DHT22;6406;59.312;18.058;2022-08-01T00:23:30;16.50;1.00
12684;DHT22;6406;59.312;18.058;2022-08-01T00:25:57;16.50;1.00
12684;DHT22;6406;59.312;18.058;2022-08-01T00:28:26;16.50;1.00
12684;DHT22;6406;59.312;18.058;2022-08-01T00:30:53;16.50;1.00
12684;DHT22;6406;59.312;18.058;2022-08-01T00:33:20;16.40;1.00
12684;DHT22;6406;59.312;18.058;2022-08-01T00:35:47;16.50;1.00
12684;DHT22;6406;59.312;18.058;2022-08-01T00:38:14;16.50;1.00
12684;DHT22;6406;59.312;18.058;2022-08-01T00:40:41;16.40;1.00
12684;DHT22;6406;59.312;18.058;2022-08-01T00:43:08;16.40;1.00
12684;DHT22;6406;59.312;18.058;2022-08-01T00:45:37;16.30;1.00
12684;DHT22;6406;59.312;18.058;2022-08-01T00:48:04;16.30;1.00
12684;DHT22;6406;59.312;18.058;2022-08-01T00:50:31;16.30;1.00
12684;DHT22;6406;59.312;18.058;2022-08-01T00:52:59;16.30;1.00
12684;DHT22;6406;59.312;18.058;2022-08-01T00:55:27;16.40;1.00
12684;DHT22;6406;59.312;18.058;2022-08-01T00:57:55;16.40;1.00
12684;DHT22;6406;59.312;18.058;2022-08-01T01:00:22;16.40;1.00
12684;DHT22;6406;59.312;18.058;2022-08-01T01:02:50;16.30;1.00
12684;DHT22;6406;59.312;18.058;2022-08-01T01:05:18;16.30;1.00
12684;DHT22;6406;59.312;18.058;2022-08-01T01:07:50;16.30;1.00
12684;DHT22;6406;59.312;18.058;2022-08-01T01:10:25;16.30;1.00
12684;DHT22;6406;59.312;18.058;2022-08-01T01:12:59;16.20;1.00
12684;DHT22;6406;59.312;18.058;2022-08-01T01:15:33;16.30;1.00
12684;DHT22;6406;59.312;18.058;2022-08-01T01:18:07;16.20;1.00
12684;DHT22;6406;59.312;18.058;2022-08-01T01:20:37;16.30;1.00
12684;DHT22;6406;59.312;18.058;2022-08-01T01:23:21;16.20;1.00
12684;DHT22;6406;59.312;18.058;2022-08-01T01:26:17;16.20;1.00
12684;DHT22;6406;59.312;18.058;2022-08-01T01:29:03;16.00;1.00
12684;DHT22;6406;59.312;18.058;2022-08-01T01:31:35;16.20;1.00
12684;DHT22;6406;59.312;18.058;2022-08-01T01:34:03;16.20;1.00
12684;DHT22;6406;59.312;18.058;2022-08-01T01:36:32;16.20;1.00
12684;DHT22;6406;59.312;18.058;2022-08-01T01:39:00;16.20;1.00
12684;DHT22;6406;59.312;18.058;2022-08-01T01:41:28;16.20;1.00
12684;DHT22;6406;59.312;18.058;2022-08-01T01:43:58;16.20;1.00
12684;DHT22;6406;59.312;18.058;2022-08-01T01:46:27;16.20;1.00
12684;DHT22;6406;59.312;18.058;2022-08-01T01:48:55;16.20;1.00
12684;DHT22;6406;59.312;18.058;2022-08-01T01:51:25;16.20;1.00
12684;DHT22;6406;59.312;18.058;2022-08-01T01:53:53;16.20;1.00
12684;DHT22;6406;59.312;18.058;2022-08-01T01:56:22;16.20;1.00
12684;DHT22;6406;59.312;18.058;2022-08-01T01:58:51;16.20;1.00
12684;DHT22;6406;59.312;18.058;2022-08-01T02:01:21;16.20;1.00
12684;DHT22;6406;59.312;18.058;2022-08-01T02:03:50;16.20;1.00
12684;DHT22;6406;59.312;18.058;2022-08-01T02:06:20;16.20;1.00
12684;DHT22;6406;59.312;18.058;2022-08-01T02:08:48;16.20;1.00
12684;DHT22;6406;59.312;18.058;2022-08-01T02:11:16;16.20;1.00
12684;DHT22;6406;59.312;18.058;2022-08-01T02:13:52;16.20;1.00
12684;DHT22;6406;59.312;18.058;2022-08-01T02:16:24;16.20;1.00
12684;DHT22;6406;59.312;18.058;2022-08-01T02:18:51;16.20;1.00
12684;DHT22;6406;59.312;18.058;2022-08-01T02:21:25;16.20;1.00
12684;DHT22;6406;59.312;18.058;2022-08-01T02:23:55;16.20;1.00
12684;DHT22;6406;59.312;18.058;2022-08-01T02:26:27;16.30;1.00
12684;DHT22;6406;59.312;18.058;2022-08-01T02:29:02;16.30;1.00
12684;DHT22;6406;59.312;18.058;2022-08-01T02:31:35;16.20;1.00
12684;DHT22;6406;59.312;18.058;2022-08-01T02:34:07;16.30;1.00
12684;DHT22;6406;59.312;18.058;2022-08-01T02:36:36;16.30;1.00
12684;DHT22;6406;59.312;18.058;2022-08-01T02:39:08;16.20;1.00
12684;DHT22;6406;59.312;18.058;2022-08-01T02:41:39;16.20;1.00
12684;DHT22;6406;59.312;18.058;2022-08-01T02:44:09;16.20;1.00
12684;DHT22;6406;59.312;18.058;2022-08-01T02:46:46;15.40;1.00
12684;DHT22;6406;59.312;18.058;2022-08-01T02:49:16;16.20;1.00
12684;DHT22;6406;59.312;18.058;2022-08-01T02:51:46;16.20;1.00
12684;DHT22;6406;59.312;18.058;2022-08-01T02:54:15;16.20;1.00
12684;DHT22;6406;59.312;18.058;2022-08-01T02:56:44;16.20;1.00
12684;DHT22;6406;59.312;18.058;2022-08-01T02:59:16;16.20;1.00
12684;DHT22;6406;59.312;18.058;2022-08-01T03:01:46;16.30;1.00
12684;DHT22;6406;59.312;18.058;2022-08-01T03:04:14;16.30;1.00
12684;DHT22;6406;59.312;18.058;2022-08-01T03:06:43;16.30;1.00
12684;DHT22;6406;59.312;18.058;2022-08-01T03:09:12;16.30;1.00
12684;DHT22;6406;59.312;18.058;2022-08-01T03:11:41;16.30;1.00
12684;DHT22;6406;59.312;18.058;2022-08-01T03:14:10;16.30;1.00
12684;DHT22;6406;59.312;18.058;2022-08-01T03:16:39;16.40;1.00
12684;DHT22;6406;59.312;18.058;2022-08-01T03:19:11;16.40;1.00
12684;DHT22;6406;59.312;18.058;2022-08-01T03:21:40;16.40;1.00
12684;DHT22;6406;59.312;18.058;2022-08-01T03:24:08;16.40;1.00
12684;DHT22;6406;59.312;18.058;2022-08-01T03:26:36;16.40;1.00
12684;DHT22;6406;59.312;18.058;2022-08-01T03:29:06;16.40;1.00
12684;DHT22;6406;59.312;18.058;2022-08-01T03:31:37;16.50;1.00
12684;DHT22;6406;59.312;18.058;2022-08-01T03:34:09;16.50;1.00
12684;DHT22;6406;59.312;18.058;2022-08-01T03:36:45;16.50;1.00
12684;DHT22;6406;59.312;18.058;2022-08-01T03:39:14;16.50;1.00
12684;DHT22;6406;59.312;18.058;2022-08-01T03:41:48;16.50;1.00
12684;DHT22;6406;59.312;18.058;2022-08-01T03:44:22;16.50;1.00
12684;DHT22;6406;59.312;18.058;2022-08-01T03:46:56;16.50;1.00
12684;DHT22;6406;59.312;18.058;2022-08-01T03:49:32;16.50;1.00
12684;DHT22;6406;59.312;18.058;2022-08-01T03:52:01;16.50;1.00
12684;DHT22;6406;59.312;18.058;2022-08-01T03:54:36;16.50;1.00
12684;DHT22;6406;59.312;18.058;2022-08-01T03:57:05;16.50;1.00
12684;DHT22;6406;59.312;18.058;2022-08-01T03:59:34;16.50;1.00
12684;DHT22;6406;59.312;18.058;2022-08-01T04:02:02;16.50;1.00
12684;DHT22;6406;59.312;18.058;2022-08-01T04:04:31;16.60;1.00
12684;DHT22;6406;59.312;18.058;2022-08-01T04:06:58;16.60;1.00
12684;DHT22;6406;59.312;18.058;2022-08-01T04:09:30;16.70;1.00
12684;DHT22;6406;59.312;18.058;2022-08-01T04:11:58;16.80;1.00
12684;DHT22;6406;59.312;18.058;2022-08-01T04:14:26;16.90;1.00
12684;DHT22;6406;59.312;18.058;2022-08-01T04:16:53;17.00;1.00
12684;DHT22;6406;59.312;18.058;2022-08-01T04:19:20;17.00;1.00
12684;DHT22;6406;59.312;18.058;2022-08-01T04:21:49;17.10;1.00
12684;DHT22;6406;59.312;18.058;2022-08-01T04:24:18;17.30;1.00
12684;DHT22;6406;59.312;18.058;2022-08-01T04:26:49;17.10;1.00
12684;DHT22;6406;59.312;18.058;2022-08-01T04:29:17;17.10;1.00
12684;DHT22;6406;59.312;18.058;2022-08-01T04:31:48;17.30;1.00
12684;DHT22;6406;59.312;18.058;2022-08-01T04:34:19;17.30;1.00
12684;DHT22;6406;59.312;18.058;2022-08-01T04:36:50;17.40;1.00
12684;DHT22;6406;59.312;18.058;2022-08-01T04:39:19;17.50;1.00
12684;DHT22;6406;59.312;18.058;2022-08-01T04:41:47;17.50;1.00
12684;DHT22;6406;59.312;18.058;2022-08-01T04:44:14;17.60;1.00
12684;DHT22;6406;59.312;18.058;2022-08-01T04:46:42;17.70;1.00
12684;DHT22;6406;59.312;18.058;2022-08-01T04:49:11;17.80;1.00
12684;DHT22;6406;59.312;18.058;2022-08-01T04:51:52;17.90;1.00
12684;DHT22;6406;59.312;18.058;2022-08-01T04:54:23;18.00;1.00
12684;DHT22;6406;59.312;18.058;2022-08-01T04:56:50;18.20;1.00
12684;DHT22;6406;59.312;18.058;2022-08-01T04:59:19;18.30;1.00
12684;DHT22;6406;59.312;18.058;2022-08-01T05:02:04;18.30;1.00
12684;DHT22;6406;59.312;18.058;2022-08-01T05:04:31;18.50;1.00
12684;DHT22;6406;59.312;18.058;2022-08-01T05:06:59;18.70;1.00
12684;DHT22;6406;59.312;18.058;2022-08-01T05:09:26;18.90;1.00
12684;DHT22;6406;59.312;18.058;2022-08-01T05:11:53;19.10;1.00
12684;DHT22;6406;59.312;18.058;2022-08-01T05:14:23;19.30;1.00
12684;DHT22;6406;59.312;18.058;2022-08-01T05:16:51;19.40;1.00
12684;DHT22;6406;59.312;18.058;2022-08-01T05:19:18;19.40;1.00
12684;DHT22;6406;59.312;18.058;2022-08-01T05:21:45;19.40;1.00
12684;DHT22;6406;59.312;18.058;2022-08-01T05:24:13;19.40;1.00
12684;DHT22;6406;59.312;18.058;2022-08-01T05:26:40;19.40;1.00
12684;DHT22;6406;59.312;18.058;2022-08-01T05:29:07;19.40;1.00
12684;DHT22;6406;59.312;18.058;2022-08-01T05:31:34;19.30;1.00
12684;DHT22;6406;59.312;18.058;2022-08-01T05:34:02;19.60;1.00
12684;DHT22;6406;59.312;18.058;2022-08-01T05:36:29;19.40;1.00
12684;DHT22;6406;59.312;18.058;2022-08-01T05:38:56;19.40;1.00
12684;DHT22;6406;59.312;18.058;2022-08-01T05:41:25;19.40;1.00
12684;DHT22;6406;59.312;18.058;2022-08-01T05:43:52;19.40;1.00
12684;DHT22;6406;59.312;18.058;2022-08-01T05:46:19;19.30;1.00
12684;DHT22;6406;59.312;18.058;2022-08-01T05:48:46;19.20;1.00
12684;DHT22;6406;59.312;18.058;2022-08-01T05:51:13;19.20;1.00
12684;DHT22;6406;59.312;18.058;2022-08-01T05:53:40;19.30;1.00
12684;DHT22;6406;59.312;18.058;2022-08-01T05:56:07;19.30;1.00
12684;DHT22;6406;59.312;18.058;2022-08-01T05:58:36;19.50;1.00
12684;DHT22;6406;59.312;18.058;2022-08-01T06:01:04;19.70;1.00
12684;DHT22;6406;59.312;18.058;2022-08-01T06:03:31;19.70;1.00
12684;DHT22;6406;59.312;18.058;2022-08-01T06:05:59;19.90;1.00
12684;DHT22;6406;59.312;18.058;2022-08-01T06:08:27;20.20;1.00
12684;DHT22;6406;59.312;18.058;2022-08-01T06:10:54;20.30;1.00
12684;DHT22;6406;59.312;18.058;2022-08-01T06:13:21;20.50;1.00
12684;DHT22;6406;59.312;18.058;2022-08-01T06:15:50;20.50;1.00
12684;DHT22;6406;59.312;18.058;2022-08-01T06:18:18;20.30;1.00
12684;DHT22;6406;59.312;18.058;2022-08-01T06:20:45;20.40;1.00
12684;DHT22;6406;59.312;18.058;2022-08-01T06:23:12;20.50;1.00
12684;DHT22;6406;59.312;18.058;2022-08-01T06:25:41;20.50;1.00
12684;DHT22;6406;59.312;18.058;2022-08-01T06:28:09;20.50;1.00
12684;DHT22;6406;59.312;18.058;2022-08-01T06:30:37;20.60;1.00
12684;DHT22;6406;59.312;18.058;2022-08-01T06:33:06;20.60;1.00
12684;DHT22;6406;59.312;18.058;2022-08-01T06:35:34;19.10;1.00
12684;DHT22;6406;59.312;18.058;2022-08-01T06:38:03;18.60;1.00
12684;DHT22;6406;59.312;18.058;2022-08-01T06:40:30;20.80;1.00
12684;DHT22;6406;59.312;18.058;2022-08-01T06:42:57;21.00;1.00
12684;DHT22;6406;59.312;18.058;2022-08-01T06:45:24;21.10;1.00
12684;DHT22;6406;59.312;18.058;2022-08-01T06:47:52;21.20;1.00
12684;DHT22;6406;59.312;18.058;2022-08-01T06:50:21;21.00;1.00
12684;DHT22;6406;59.312;18.058;2022-08-01T06:52:48;21.00;1.00
12684;DHT22;6406;59.312;18.058;2022-08-01T06:55:15;20.90;1.00
12684;DHT22;6406;59.312;18.058;2022-08-01T06:57:46;21.20;1.00
12684;DHT22;6406;59.312;18.058;2022-08-01T07:00:15;21.30;1.00
12684;DHT22;6406;59.312;18.058;2022-08-01T07:02:44;21.40;1.00
12684;DHT22;6406;59.312;18.058;2022-08-01T07:05:12;21.40;1.00
12684;DHT22;6406;59.312;18.058;2022-08-01T07:07:41;21.30;1.00
12684;DHT22;6406;59.312;18.058;2022-08-01T07:10:09;21.30;1.00
12684;DHT22;6406;59.312;18.058;2022-08-01T07:12:37;21.30;1.00
12684;DHT22;6406;59.312;18.058;2022-08-01T07:15:07;21.30;1.00
12684;DHT22;6406;59.312;18.058;2022-08-01T07:17:36;21.40;1.00
12684;DHT22;6406;59.312;18.058;2022-08-01T07:20:06;21.50;1.00
12684;DHT22;6406;59.312;18.058;2022-08-01T07:22:33;21.60;1.00
12684;DHT22;6406;59.312;18.058;2022-08-01T07:25:02;21.60;1.00
12684;DHT22;6406;59.312;18.058;2022-08-01T07:27:29;21.20;1.00
12684;DHT22;6406;59.312;18.058;2022-08-01T07:29:56;21.30;1.00
12684;DHT22;6406;59.312;18.058;2022-08-01T07:32:24;21.50;1.00
12684;DHT22;6406;59.312;18.058;2022-08-01T07:34:51;21.70;1.00
12684;DHT22;6406;59.312;18.058;2022-08-01T07:37:18;21.70;1.00
12684;DHT22;6406;59.312;18.058;2022-08-01T07:39:45;21.70;1.00
12684;DHT22;6406;59.312;18.058;2022-08-01T07:42:13;21.70;1.00
12684;DHT22;6406;59.312;18.058;2022-08-01T07:44:40;21.80;1.00
12684;DHT22;6406;59.312;18.058;2022-08-01T07:47:07;22.00;1.00
12684;DHT22;6406;59.312;18.058;2022-08-01T07:49:35;22.10;1.00
12684;DHT22;6406;59.312;18.058;2022-08-01T07:52:03;22.10;1.00
12684;DHT22;6406;59.312;18.058;2022-08-01T07:54:31;22.00;1.00
12684;DHT22;6406;59.312;18.058;2022-08-01T07:56:58;21.90;1.00
12684;DHT22;6406;59.312;18.058;2022-08-01T07:59:27;21.90;1.00
12684;DHT22;6406;59.312;18.058;2022-08-01T08:01:54;22.20;1.00
12684;DHT22;6406;59.312;18.058;2022-08-01T08:04:21;22.10;1.00
12684;DHT22;6406;59.312;18.058;2022-08-01T08:06:48;22.20;1.00
12684;DHT22;6406;59.312;18.058;2022-08-01T08:09:16;22.40;1.00
12684;DHT22;6406;59.312;18.058;2022-08-01T08:11:44;22.50;1.00
12684;DHT22;6406;59.312;18.058;2022-08-01T08:14:14;22.60;1.00
12684;DHT22;6406;59.312;18.058;2022-08-01T08:16:43;22.50;1.00
12684;DHT22;6406;59.312;18.058;2022-08-01T08:19:11;22.40;1.00
12684;DHT22;6406;59.312;18.058;2022-08-01T08:21:38;22.20;1.00
12684;DHT22;6406;59.312;18.058;2022-08-01T08:24:06;22.20;1.00
12684;DHT22;6406;59.312;18.058;2022-08-01T08:26:50;22.20;1.00
12684;DHT22;6406;59.312;18.058;2022-08-01T08:29:18;22.30;1.00
12684;DHT22;6406;59.312;18.058;2022-08-01T08:31:47;22.20;1.00
12684;DHT22;6406;59.312;18.058;2022-08-01T08:34:14;22.20;1.00
12684;DHT22;6406;59.312;18.058;2022-08-01T08:36:41;22.40;1.00
12684;DHT22;6406;59.312;18.058;2022-08-01T08:39:08;22.60;1.00
12684;DHT22;6406;59.312;18.058;2022-08-01T08:41:36;22.60;1.00
12684;DHT22;6406;59.312;18.058;2022-08-01T08:44:04;22.60;1.00
12684;DHT22;6406;59.312;18.058;2022-08-01T08:46:32;22.40;1.00
12684;DHT22;6406;59.312;18.058;2022-08-01T08:49:02;22.50;1.00
12684;DHT22;6406;59.312;18.058;2022-08-01T08:51:31;22.50;1.00
12684;DHT22;6406;59.312;18.058;2022-08-01T08:54:00;22.50;1.00
12684;DHT22;6406;59.312;18.058;2022-08-01T08:56:30;22.30;1.00
12684;DHT22;6406;59.312;18.058;2022-08-01T08:59:00;22.60;1.00
12684;DHT22;6406;59.312;18.058;2022-08-01T09:01:27;22.60;1.00
12684;DHT22;6406;59.312;18.058;2022-08-01T09:03:54;22.90;1.00
12684;DHT22;6406;59.312;18.058;2022-08-01T09:06:23;22.70;1.00
12684;DHT22;6406;59.312;18.058;2022-08-01T09:08:52;22.90;1.00
12684;DHT22;6406;59.312;18.058;2022-08-01T09:11:19;23.00;1.00
12684;DHT22;6406;59.312;18.058;2022-08-01T09:14:02;23.10;1.00
12684;DHT22;6406;59.312;18.058;2022-08-01T09:16:30;23.30;1.00
12684;DHT22;6406;59.312;18.058;2022-08-01T09:19:07;23.20;1.00
12684;DHT22;6406;59.312;18.058;2022-08-01T09:21:37;23.50;1.00
12684;DHT22;6406;59.312;18.058;2022-08-01T09:24:13;23.50;1.00
12684;DHT22;6406;59.312;18.058;2022-08-01T09:26:41;23.90;1.00
12684;DHT22;6406;59.312;18.058;2022-08-01T09:29:17;24.10;1.00
12684;DHT22;6406;59.312;18.058;2022-08-01T09:31:45;24.20;1.00
12684;DHT22;6406;59.312;18.058;2022-08-01T09:34:13;24.30;1.00
12684;DHT22;6406;59.312;18.058;2022-08-01T09:36:47;24.10;1.00
12684;DHT22;6406;59.312;18.058;2022-08-01T09:39:18;24.00;1.00
12684;DHT22;6406;59.312;18.058;2022-08-01T09:41:46;24.00;1.00
12684;DHT22;6406;59.312;18.058;2022-08-01T09:44:14;24.10;1.00
12684;DHT22;6406;59.312;18.058;2022-08-01T09:46:51;24.30;1.00
12684;DHT22;6406;59.312;18.058;2022-08-01T09:49:30;24.30;1.00
12684;DHT22;6406;59.312;18.058;2022-08-01T09:52:00;24.60;1.00
12684;DHT22;6406;59.312;18.058;2022-08-01T09:54:35;24.70;1.00
12684;DHT22;6406;59.312;18.058;2022-08-01T09:57:14;24.10;1.00
12684;DHT22;6406;59.312;18.058;2022-08-01T09:59:44;24.40;1.00
12684;DHT22;6406;59.312;18.058;2022-08-01T10:02:13;24.60;1.00
12684;DHT22;6406;59.312;18.058;2022-08-01T10:04:47;24.80;1.00
12684;DHT22;6406;59.312;18.058;2022-08-01T10:07:16;25.30;1.00
12684;DHT22;6406;59.312;18.058;2022-08-01T10:09:44;25.30;1.00
12684;DHT22;6406;59.312;18.058;2022-08-01T10:12:14;25.60;1.00
12684;DHT22;6406;59.312;18.058;2022-08-01T10:14:43;25.40;1.00
12684;DHT22;6406;59.312;18.058;2022-08-01T10:17:13;25.50;1.00
12684;DHT22;6406;59.312;18.058;2022-08-01T10:19:42;25.90;1.00
12684;DHT22;6406;59.312;18.058;2022-08-01T10:22:11;26.00;1.00
12684;DHT22;6406;59.312;18.058;2022-08-01T10:24:44;26.10;1.00
12684;DHT22;6406;59.312;18.058;2022-08-01T10:27:14;25.50;1.00
12684;DHT22;6406;59.312;18.058;2022-08-01T10:29:43;25.10;1.00
12684;DHT22;6406;59.312;18.058;2022-08-01T10:32:13;25.00;1.00
12684;DHT22;6406;59.312;18.058;2022-08-01T10:34:40;25.00;1.00
12684;DHT22;6406;59.312;18.058;2022-08-01T10:37:07;25.20;1.00
12684;DHT22;6406;59.312;18.058;2022-08-01T10:39:35;25.40;1.00
12684;DHT22;6406;59.312;18.058;2022-08-01T10:42:06;25.70;1.00
12684;DHT22;6406;59.312;18.058;2022-08-01T10:44:36;25.70;1.00
12684;DHT22;6406;59.312;18.058;2022-08-01T10:47:07;25.60;1.00
12684;DHT22;6406;59.312;18.058;2022-08-01T10:49:41;25.70;1.00
12684;DHT22;6406;59.312;18.058;2022-08-01T10:52:14;26.10;1.00
12684;DHT22;6406;59.312;18.058;2022-08-01T10:54:41;25.80;1.00
12684;DHT22;6406;59.312;18.058;2022-08-01T10:57:10;25.40;1.00
12684;DHT22;6406;59.312;18.058;2022-08-01T10:59:48;25.90;1.00
12684;DHT22;6406;59.312;18.058;2022-08-01T11:02:27;26.20;1.00
12684;DHT22;6406;59.312;18.058;2022-08-01T11:04:57;26.50;1.00
12684;DHT22;6406;59.312;18.058;2022-08-01T11:07:38;25.90;1.00
12684;DHT22;6406;59.312;18.058;2022-08-01T11:10:15;26.00;1.00
12684;DHT22;6406;59.312;18.058;2022-08-01T11:12:44;26.00;1.00
12684;DHT22;6406;59.312;18.058;2022-08-01T11:15:22;25.50;1.00
12684;DHT22;6406;59.312;18.058;2022-08-01T11:17:52;25.00;1.00
12684;DHT22;6406;59.312;18.058;2022-08-01T11:20:21;24.60;1.00
12684;DHT22;6406;59.312;18.058;2022-08-01T11:23:18;24.60;1.00
12684;DHT22;6406;59.312;18.058;2022-08-01T11:26:06;24.20;1.00
12684;DHT22;6406;59.312;18.058;2022-08-01T11:28:34;24.10;1.00
12684;DHT22;6406;59.312;18.058;2022-08-01T11:31:26;23.90;1.00
12684;DHT22;6406;59.312;18.058;2022-08-01T11:33:53;23.90;1.00
12684;DHT22;6406;59.312;18.058;2022-08-01T11:36:20;23.80;1.00
12684;DHT22;6406;59.312;18.058;2022-08-01T11:38:49;23.80;1.00
12684;DHT22;6406;59.312;18.058;2022-08-01T11:41:38;23.90;1.00
12684;DHT22;6406;59.312;18.058;2022-08-01T11:44:14;24.20;1.00
12684;DHT22;6406;59.312;18.058;2022-08-01T11:46:48;24.40;1.00
12684;DHT22;6406;59.312;18.058;2022-08-01T11:49:44;24.50;1.00
12684;DHT22;6406;59.312;18.058;2022-08-01T11:52:31;24.50;1.00
12684;DHT22;6406;59.312;18.058;2022-08-01T11:55:08;23.00;1.00
12684;DHT22;6406;59.312;18.058;2022-08-01T11:57:38;24.10;1.00
12684;DHT22;6406;59.312;18.058;2022-08-01T12:00:17;24.00;1.00
12684;DHT22;6406;59.312;18.058;2022-08-01T12:02:46;23.70;1.00
12684;DHT22;6406;59.312;18.058;2022-08-01T12:05:22;23.60;1.00
12684;DHT22;6406;59.312;18.058;2022-08-01T12:07:50;23.60;1.00
12684;DHT22;6406;59.312;18.058;2022-08-01T12:10:33;23.50;1.00
12684;DHT22;6406;59.312;18.058;2022-08-01T12:13:04;24.60;1.00
12684;DHT22;6406;59.312;18.058;2022-08-01T12:15:35;23.30;1.00
12684;DHT22;6406;59.312;18.058;2022-08-01T12:18:06;23.70;1.00
12684;DHT22;6406;59.312;18.058;2022-08-01T12:20:34;23.10;1.00
12684;DHT22;6406;59.312;18.058;2022-08-01T12:23:03;23.00;1.00
12684;DHT22;6406;59.312;18.058;2022-08-01T12:25:31;22.90;1.00
12684;DHT22;6406;59.312;18.058;2022-08-01T12:28:00;23.00;1.00
12684;DHT22;6406;59.312;18.058;2022-08-01T12:30:28;22.90;1.00
12684;DHT22;6406;59.312;18.058;2022-08-01T12:32:58;22.90;1.00
12684;DHT22;6406;59.312;18.058;2022-08-01T12:35:29;23.10;1.00
12684;DHT22;6406;59.312;18.058;2022-08-01T12:37:58;23.00;1.00
12684;DHT22;6406;59.312;18.058;2022-08-01T12:40:27;23.60;1.00
12684;DHT22;6406;59.312;18.058;2022-08-01T12:42:56;24.50;1.00
12684;DHT22;6406;59.312;18.058;2022-08-01T12:45:28;24.60;1.00
12684;DHT22;6406;59.312;18.058;2022-08-01T12:47:59;24.80;1.00
12684;DHT22;6406;59.312;18.058;2022-08-01T12:50:30;24.40;1.00
12684;DHT22;6406;59.312;18.058;2022-08-01T12:53:05;24.50;1.00
12684;DHT22;6406;59.312;18.058;2022-08-01T12:55:43;24.60;1.00
12684;DHT22;6406;59.312;18.058;2022-08-01T12:58:12;23.30;1.00
12684;DHT22;6406;59.312;18.058;2022-08-01T13:00:41;24.40;1.00
12684;DHT22;6406;59.312;18.058;2022-08-01T13:03:12;24.40;1.00
12684;DHT22;6406;59.312;18.058;2022-08-01T13:05:44;24.40;1.00
12684;DHT22;6406;59.312;18.058;2022-08-01T13:08:12;24.30;1.00
12684;DHT22;6406;59.312;18.058;2022-08-01T13:10:39;24.40;1.00
12684;DHT22;6406;59.312;18.058;2022-08-01T13:13:07;24.30;1.00
12684;DHT22;6406;59.312;18.058;2022-08-01T13:15:36;24.20;1.00
12684;DHT22;6406;59.312;18.058;2022-08-01T13:18:25;25.10;1.00
12684;DHT22;6406;59.312;18.058;2022-08-01T13:21:12;24.80;1.00
12684;DHT22;6406;59.312;18.058;2022-08-01T13:23:42;24.40;1.00
12684;DHT22;6406;59.312;18.058;2022-08-01T13:26:09;24.60;1.00
12684;DHT22;6406;59.312;18.058;2022-08-01T13:28:36;24.70;1.00
12684;DHT22;6406;59.312;18.058;2022-08-01T13:31:06;24.80;1.00
12684;DHT22;6406;59.312;18.058;2022-08-01T13:33:45;25.10;1.00
12684;DHT22;6406;59.312;18.058;2022-08-01T13:36:13;25.10;1.00
12684;DHT22;6406;59.312;18.058;2022-08-01T13:38:42;25.60;1.00
12684;DHT22;6406;59.312;18.058;2022-08-01T13:41:34;25.40;1.00
12684;DHT22;6406;59.312;18.058;2022-08-01T13:44:06;25.40;1.00
12684;DHT22;6406;59.312;18.058;2022-08-01T13:46:35;25.90;1.00
12684;DHT22;6406;59.312;18.058;2022-08-01T13:49:08;26.30;1.00
12684;DHT22;6406;59.312;18.058;2022-08-01T13:51:37;26.50;1.00
12684;DHT22;6406;59.312;18.058;2022-08-01T13:54:06;26.90;1.00
12684;DHT22;6406;59.312;18.058;2022-08-01T13:56:34;26.50;1.00
12684;DHT22;6406;59.312;18.058;2022-08-01T13:59:01;26.50;1.00
12684;DHT22;6406;59.312;18.058;2022-08-01T14:01:29;25.80;1.00
12684;DHT22;6406;59.312;18.058;2022-08-01T14:03:56;25.90;1.00
12684;DHT22;6406;59.312;18.058;2022-08-01T14:06:26;26.00;1.00
12684;DHT22;6406;59.312;18.058;2022-08-01T14:08:53;25.70;1.00
12684;DHT22;6406;59.312;18.058;2022-08-01T14:11:33;25.50;1.00
12684;DHT22;6406;59.312;18.058;2022-08-01T14:14:00;27.10;1.00
12684;DHT22;6406;59.312;18.058;2022-08-01T14:16:28;25.60;1.00
12684;DHT22;6406;59.312;18.058;2022-08-01T14:18:55;25.40;1.00
12684;DHT22;6406;59.312;18.058;2022-08-01T14:21:22;25.40;1.00
12684;DHT22;6406;59.312;18.058;2022-08-01T14:23:50;25.20;1.00
12684;DHT22;6406;59.312;18.058;2022-08-01T14:26:36;25.30;1.00
12684;DHT22;6406;59.312;18.058;2022-08-01T14:29:03;25.30;1.00
12684;DHT22;6406;59.312;18.058;2022-08-01T14:31:30;25.00;1.00
12684;DHT22;6406;59.312;18.058;2022-08-01T14:33:57;25.00;1.00
12684;DHT22;6406;59.312;18.058;2022-08-01T14:36:25;25.20;1.00
12684;DHT22;6406;59.312;18.058;2022-08-01T14:38:58;25.00;1.00
12684;DHT22;6406;59.312;18.058;2022-08-01T14:41:25;24.80;1.00
12684;DHT22;6406;59.312;18.058;2022-08-01T14:43:52;25.10;1.00
12684;DHT22;6406;59.312;18.058;2022-08-01T14:46:19;25.10;1.00
12684;DHT22;6406;59.312;18.058;2022-08-01T14:48:46;25.30;1.00
12684;DHT22;6406;59.312;18.058;2022-08-01T14:51:14;25.30;1.00
12684;DHT22;6406;59.312;18.058;2022-08-01T14:53:41;24.50;1.00
12684;DHT22;6406;59.312;18.058;2022-08-01T14:56:10;25.40;1.00
12684;DHT22;6406;59.312;18.058;2022-08-01T14:58:37;24.80;1.00
12684;DHT22;6406;59.312;18.058;2022-08-01T15:01:04;24.80;1.00
12684;DHT22;6406;59.312;18.058;2022-08-01T15:03:32;24.90;1.00
12684;DHT22;6406;59.312;18.058;2022-08-01T15:05:59;24.80;1.00
12684;DHT22;6406;59.312;18.058;2022-08-01T15:08:26;24.70;1.00
12684;DHT22;6406;59.312;18.058;2022-08-01T15:10:53;24.60;1.00
12684;DHT22;6406;59.312;18.058;2022-08-01T15:13:22;24.20;1.00
12684;DHT22;6406;59.312;18.058;2022-08-01T15:15:49;24.20;1.00
12684;DHT22;6406;59.312;18.058;2022-08-01T15:18:16;24.20;1.00
12684;DHT22;6406;59.312;18.058;2022-08-01T15:20:44;24.20;1.00
12684;DHT22;6406;59.312;18.058;2022-08-01T15:23:13;23.90;1.00
12684;DHT22;6406;59.312;18.058;2022-08-01T15:25:40;23.70;1.00
12684;DHT22;6406;59.312;18.058;2022-08-01T15:28:08;23.70;1.00
12684;DHT22;6406;59.312;18.058;2022-08-01T15:30:36;23.00;1.00
12684;DHT22;6406;59.312;18.058;2022-08-01T15:33:03;23.60;1.00
12684;DHT22;6406;59.312;18.058;2022-08-01T15:35:31;23.60;1.00
12684;DHT22;6406;59.312;18.058;2022-08-01T15:37:58;23.40;1.00
12684;DHT22;6406;59.312;18.058;2022-08-01T15:40:25;23.50;1.00
12684;DHT22;6406;59.312;18.058;2022-08-01T15:42:53;23.30;1.00
12684;DHT22;6406;59.312;18.058;2022-08-01T15:45:20;23.20;1.00
12684;DHT22;6406;59.312;18.058;2022-08-01T15:47:49;23.20;1.00
12684;DHT22;6406;59.312;18.058;2022-08-01T15:50:16;23.20;1.00
12684;DHT22;6406;59.312;18.058;2022-08-01T15:52:43;22.50;1.00
12684;DHT22;6406;59.312;18.058;2022-08-01T15:55:10;23.50;1.00
12684;DHT22;6406;59.312;18.058;2022-08-01T15:57:37;24.60;1.00
12684;DHT22;6406;59.312;18.058;2022-08-01T16:00:06;25.40;1.00
12684;DHT22;6406;59.312;18.058;2022-08-01T16:02:33;25.10;1.00